Preveza, Greece
Current Conditions -  °F | °C
As of 1:50 AM on Friday 28 Nov 2014 (Local Time) from LGPZ Reporting Station
Scattered Clouds Scattered Clouds  
Wind Chill: 54°   Ceiling: Unl
Heat Index: 54°   Visibility: 6mi
Dew Point: 50°   Wind: 0mph
Humidity: 88%   Direction: NA
Pressure: 30.09"   Gusts: NA
Location:  38.95°N, 20.75°E
Report Text: LGPZ 272250Z 00000KT 9999 FEW010 SCT025 12/10 Q1019
Loading
Personal Weather Stations






























Interactive Weather Map New forecast layout! Learn more

10-Day Weather Forecast

Advertisements
Track Severe Weather on mobile